sensor_id;sensor_type;location;lat;lon;timestamp;P1;durP1;ratioP1;P2;durP2;ratioP2
57297;SDS011;43147;50.972;18.210;2022-10-26T00:01:18;45.40;;;29.60;;
57297;SDS011;43147;50.972;18.210;2022-10-26T00:03:44;44.20;;;28.00;;
57297;SDS011;43147;50.972;18.210;2022-10-26T00:08:45;40.40;;;26.70;;
57297;SDS011;43147;50.972;18.210;2022-10-26T00:11:11;38.20;;;25.50;;
57297;SDS011;43147;50.972;18.210;2022-10-26T00:13:37;37.80;;;25.40;;
57297;SDS011;43147;50.972;18.210;2022-10-26T00:16:06;44.20;;;28.20;;
57297;SDS011;43147;50.972;18.210;2022-10-26T00:18:34;45.20;;;29.60;;
57297;SDS011;43147;50.972;18.210;2022-10-26T00:21:06;44.50;;;28.60;;
57297;SDS011;43147;50.972;18.210;2022-10-26T00:23:32;52.20;;;27.20;;
57297;SDS011;43147;50.972;18.210;2022-10-26T00:25:58;48.70;;;28.90;;
57297;SDS011;43147;50.972;18.210;2022-10-26T00:28:23;38.10;;;26.00;;
57297;SDS011;43147;50.972;18.210;2022-10-26T00:30:49;43.40;;;27.80;;
57297;SDS011;43147;50.972;18.210;2022-10-26T00:33:15;47.30;;;28.10;;
57297;SDS011;43147;50.972;18.210;2022-10-26T00:35:41;50.30;;;30.30;;
57297;SDS011;43147;50.972;18.210;2022-10-26T00:38:06;47.90;;;27.20;;
57297;SDS011;43147;50.972;18.210;2022-10-26T00:40:31;42.10;;;27.30;;
57297;SDS011;43147;50.972;18.210;2022-10-26T00:42:57;47.60;;;28.80;;
57297;SDS011;43147;50.972;18.210;2022-10-26T00:45:24;47.70;;;31.50;;
57297;SDS011;43147;50.972;18.210;2022-10-26T00:47:55;53.00;;;31.00;;
57297;SDS011;43147;50.972;18.210;2022-10-26T00:50:28;50.40;;;29.10;;
57297;SDS011;43147;50.972;18.210;2022-10-26T00:52:56;55.80;;;31.90;;
57297;SDS011;43147;50.972;18.210;2022-10-26T00:55:25;49.00;;;29.30;;
57297;SDS011;43147;50.972;18.210;2022-10-26T00:57:51;52.70;;;31.40;;
57297;SDS011;43147;50.972;18.210;2022-10-26T01:00:17;48.60;;;27.10;;
57297;SDS011;43147;50.972;18.210;2022-10-26T01:02:43;50.20;;;28.80;;
57297;SDS011;43147;50.972;18.210;2022-10-26T01:05:09;44.30;;;29.50;;
57297;SDS011;43147;50.972;18.210;2022-10-26T01:07:35;44.20;;;28.60;;
57297;SDS011;43147;50.972;18.210;2022-10-26T01:10:01;46.90;;;27.50;;
57297;SDS011;43147;50.972;18.210;2022-10-26T01:12:26;42.40;;;27.10;;
57297;SDS011;43147;50.972;18.210;2022-10-26T01:14:52;37.00;;;25.20;;
57297;SDS011;43147;50.972;18.210;2022-10-26T01:22:53;43.30;;;25.70;;
57297;SDS011;43147;50.972;18.210;2022-10-26T01:31:00;34.00;;;21.40;;
57297;SDS011;43147;50.972;18.210;2022-10-26T01:33:31;28.70;;;19.60;;
57297;SDS011;43147;50.972;18.210;2022-10-26T01:43:42;38.10;;;24.30;;
57297;SDS011;43147;50.972;18.210;2022-10-26T01:46:10;35.20;;;22.20;;
57297;SDS011;43147;50.972;18.210;2022-10-26T01:48:36;33.70;;;21.80;;
57297;SDS011;43147;50.972;18.210;2022-10-26T01:51:02;33.20;;;22.40;;
57297;SDS011;43147;50.972;18.210;2022-10-26T01:53:29;29.20;;;19.90;;
57297;SDS011;43147;50.972;18.210;2022-10-26T01:55:54;30.60;;;20.20;;
57297;SDS011;43147;50.972;18.210;2022-10-26T01:58:40;30.60;;;20.70;;
57297;SDS011;43147;50.972;18.210;2022-10-26T02:12:06;24.10;;;17.80;;
57297;SDS011;43147;50.972;18.210;2022-10-26T02:14:44;27.70;;;17.80;;
57297;SDS011;43147;50.972;18.210;2022-10-26T02:20:00;27.30;;;19.40;;
57297;SDS011;43147;50.972;18.210;2022-10-26T02:22:41;25.90;;;17.90;;
57297;SDS011;43147;50.972;18.210;2022-10-26T02:25:08;36.20;;;19.40;;
57297;SDS011;43147;50.972;18.210;2022-10-26T02:27:37;38.80;;;19.30;;
57297;SDS011;43147;50.972;18.210;2022-10-26T02:30:07;27.00;;;18.90;;
57297;SDS011;43147;50.972;18.210;2022-10-26T02:32:33;29.60;;;18.20;;
57297;SDS011;43147;50.972;18.210;2022-10-26T02:35:01;26.00;;;17.70;;
57297;SDS011;43147;50.972;18.210;2022-10-26T02:37:27;28.30;;;17.50;;
57297;SDS011;43147;50.972;18.210;2022-10-26T02:39:54;25.40;;;18.00;;
57297;SDS011;43147;50.972;18.210;2022-10-26T02:42:20;25.50;;;18.00;;
57297;SDS011;43147;50.972;18.210;2022-10-26T02:44:50;26.60;;;18.70;;
57297;SDS011;43147;50.972;18.210;2022-10-26T02:47:19;25.10;;;18.70;;
57297;SDS011;43147;50.972;18.210;2022-10-26T02:49:46;33.80;;;21.20;;
57297;SDS011;43147;50.972;18.210;2022-10-26T02:52:15;36.80;;;22.80;;
57297;SDS011;43147;50.972;18.210;2022-10-26T02:54:55;34.40;;;20.90;;
57297;SDS011;43147;50.972;18.210;2022-10-26T03:00:06;29.00;;;19.90;;
57297;SDS011;43147;50.972;18.210;2022-10-26T03:02:33;31.90;;;19.40;;
57297;SDS011;43147;50.972;18.210;2022-10-26T03:10:20;22.20;;;15.70;;
57297;SDS011;43147;50.972;18.210;2022-10-26T03:12:45;29.70;;;19.20;;
57297;SDS011;43147;50.972;18.210;2022-10-26T03:15:11;29.10;;;20.80;;
57297;SDS011;43147;50.972;18.210;2022-10-26T03:17:37;28.70;;;18.70;;
57297;SDS011;43147;50.972;18.210;2022-10-26T03:20:03;29.20;;;19.60;;
57297;SDS011;43147;50.972;18.210;2022-10-26T03:22:28;31.70;;;19.90;;
57297;SDS011;43147;50.972;18.210;2022-10-26T03:24:54;34.10;;;20.30;;
57297;SDS011;43147;50.972;18.210;2022-10-26T03:27:19;31.80;;;21.50;;
57297;SDS011;43147;50.972;18.210;2022-10-26T03:29:45;35.50;;;21.80;;
57297;SDS011;43147;50.972;18.210;2022-10-26T03:32:10;28.60;;;21.40;;
57297;SDS011;43147;50.972;18.210;2022-10-26T03:34:38;31.30;;;21.60;;
57297;SDS011;43147;50.972;18.210;2022-10-26T03:37:04;32.80;;;19.90;;
57297;SDS011;43147;50.972;18.210;2022-10-26T03:39:29;36.40;;;20.70;;
57297;SDS011;43147;50.972;18.210;2022-10-26T03:41:54;29.20;;;19.20;;
57297;SDS011;43147;50.972;18.210;2022-10-26T03:44:20;34.80;;;20.10;;
57297;SDS011;43147;50.972;18.210;2022-10-26T03:46:48;44.20;;;26.40;;
57297;SDS011;43147;50.972;18.210;2022-10-26T03:49:14;29.00;;;19.80;;
57297;SDS011;43147;50.972;18.210;2022-10-26T03:51:39;28.50;;;18.80;;
57297;SDS011;43147;50.972;18.210;2022-10-26T03:54:04;24.80;;;16.90;;
57297;SDS011;43147;50.972;18.210;2022-10-26T03:56:30;28.40;;;18.20;;
57297;SDS011;43147;50.972;18.210;2022-10-26T03:58:55;44.40;;;18.90;;
57297;SDS011;43147;50.972;18.210;2022-10-26T04:01:21;27.20;;;19.00;;
57297;SDS011;43147;50.972;18.210;2022-10-26T04:03:46;25.10;;;17.60;;
57297;SDS011;43147;50.972;18.210;2022-10-26T04:06:12;31.80;;;17.40;;
57297;SDS011;43147;50.972;18.210;2022-10-26T04:08:37;26.80;;;19.10;;
57297;SDS011;43147;50.972;18.210;2022-10-26T04:11:03;33.00;;;17.80;;
57297;SDS011;43147;50.972;18.210;2022-10-26T04:13:28;30.70;;;18.90;;
57297;SDS011;43147;50.972;18.210;2022-10-26T04:15:54;39.40;;;23.00;;
57297;SDS011;43147;50.972;18.210;2022-10-26T04:18:19;67.30;;;35.10;;
57297;SDS011;43147;50.972;18.210;2022-10-26T04:20:45;138.00;;;78.30;;
57297;SDS011;43147;50.972;18.210;2022-10-26T04:23:11;165.60;;;91.50;;
57297;SDS011;43147;50.972;18.210;2022-10-26T04:25:38;84.80;;;49.50;;
57297;SDS011;43147;50.972;18.210;2022-10-26T04:28:04;72.40;;;41.80;;
57297;SDS011;43147;50.972;18.210;2022-10-26T04:30:31;68.20;;;41.40;;
57297;SDS011;43147;50.972;18.210;2022-10-26T04:32:57;54.80;;;34.80;;
57297;SDS011;43147;50.972;18.210;2022-10-26T04:35:23;50.10;;;32.30;;
57297;SDS011;43147;50.972;18.210;2022-10-26T04:37:48;53.60;;;33.10;;
57297;SDS011;43147;50.972;18.210;2022-10-26T04:40:15;42.60;;;29.00;;
57297;SDS011;43147;50.972;18.210;2022-10-26T04:42:41;47.90;;;28.00;;
57297;SDS011;43147;50.972;18.210;2022-10-26T04:45:10;37.60;;;24.30;;
57297;SDS011;43147;50.972;18.210;2022-10-26T04:47:37;40.00;;;23.00;;
57297;SDS011;43147;50.972;18.210;2022-10-26T04:50:03;32.20;;;21.80;;
57297;SDS011;43147;50.972;18.210;2022-10-26T04:52:29;42.70;;;24.20;;
57297;SDS011;43147;50.972;18.210;2022-10-26T04:54:54;33.60;;;20.30;;
57297;SDS011;43147;50.972;18.210;2022-10-26T04:57:20;33.70;;;21.80;;
57297;SDS011;43147;50.972;18.210;2022-10-26T04:59:45;32.40;;;21.30;;
57297;SDS011;43147;50.972;18.210;2022-10-26T05:02:11;37.90;;;22.80;;
57297;SDS011;43147;50.972;18.210;2022-10-26T05:04:36;28.60;;;20.10;;
57297;SDS011;43147;50.972;18.210;2022-10-26T05:07:02;28.10;;;18.80;;
57297;SDS011;43147;50.972;18.210;2022-10-26T05:09:27;31.30;;;18.80;;
57297;SDS011;43147;50.972;18.210;2022-10-26T05:11:53;31.20;;;18.80;;
57297;SDS011;43147;50.972;18.210;2022-10-26T05:14:18;30.30;;;19.30;;
57297;SDS011;43147;50.972;18.210;2022-10-26T05:16:43;33.80;;;19.20;;
57297;SDS011;43147;50.972;18.210;2022-10-26T05:19:09;37.50;;;19.00;;
57297;SDS011;43147;50.972;18.210;2022-10-26T05:21:37;30.40;;;19.50;;
57297;SDS011;43147;50.972;18.210;2022-10-26T05:24:03;34.10;;;20.10;;
57297;SDS011;43147;50.972;18.210;2022-10-26T05:26:28;30.50;;;19.50;;
57297;SDS011;43147;50.972;18.210;2022-10-26T05:28:54;24.30;;;18.10;;
57297;SDS011;43147;50.972;18.210;2022-10-26T05:31:19;31.30;;;20.10;;
57297;SDS011;43147;50.972;18.210;2022-10-26T05:33:49;32.70;;;19.70;;
57297;SDS011;43147;50.972;18.210;2022-10-26T05:36:16;30.80;;;19.40;;
57297;SDS011;43147;50.972;18.210;2022-10-26T05:38:42;32.90;;;19.80;;
57297;SDS011;43147;50.972;18.210;2022-10-26T05:41:07;29.90;;;19.40;;
57297;SDS011;43147;50.972;18.210;2022-10-26T05:43:32;31.20;;;21.10;;
57297;SDS011;43147;50.972;18.210;2022-10-26T05:45:58;29.80;;;19.70;;
57297;SDS011;43147;50.972;18.210;2022-10-26T05:48:23;37.30;;;21.60;;
57297;SDS011;43147;50.972;18.210;2022-10-26T05:50:49;35.90;;;21.20;;
57297;SDS011;43147;50.972;18.210;2022-10-26T05:53:15;32.10;;;21.50;;
57297;SDS011;43147;50.972;18.210;2022-10-26T05:55:41;37.70;;;22.20;;
57297;SDS011;43147;50.972;18.210;2022-10-26T05:58:11;33.70;;;21.20;;
57297;SDS011;43147;50.972;18.210;2022-10-26T06:06:09;35.60;;;23.00;;
57297;SDS011;43147;50.972;18.210;2022-10-26T06:08:36;48.20;;;28.10;;
57297;SDS011;43147;50.972;18.210;2022-10-26T06:11:02;57.10;;;32.00;;
57297;SDS011;43147;50.972;18.210;2022-10-26T06:13:28;50.40;;;31.00;;
57297;SDS011;43147;50.972;18.210;2022-10-26T06:15:58;62.90;;;34.10;;
57297;SDS011;43147;50.972;18.210;2022-10-26T06:30:00;35.70;;;25.20;;
57297;SDS011;43147;50.972;18.210;2022-10-26T06:32:31;35.90;;;26.40;;
57297;SDS011;43147;50.972;18.210;2022-10-26T06:37:50;36.70;;;26.80;;
57297;SDS011;43147;50.972;18.210;2022-10-26T06:40:18;39.70;;;26.40;;
57297;SDS011;43147;50.972;18.210;2022-10-26T06:42:44;31.40;;;23.70;;
57297;SDS011;43147;50.972;18.210;2022-10-26T06:45:11;28.20;;;21.80;;
57297;SDS011;43147;50.972;18.210;2022-10-26T06:47:43;25.00;;;21.20;;
57297;SDS011;43147;50.972;18.210;2022-10-26T06:50:24;25.90;;;20.90;;
57297;SDS011;43147;50.972;18.210;2022-10-26T06:56:00;27.80;;;18.40;;
57297;SDS011;43147;50.972;18.210;2022-10-26T06:58:31;21.30;;;16.70;;
57297;SDS011;43147;50.972;18.210;2022-10-26T07:00:59;21.20;;;17.90;;
57297;SDS011;43147;50.972;18.210;2022-10-26T07:03:24;19.00;;;17.00;;
57297;SDS011;43147;50.972;18.210;2022-10-26T07:05:50;21.90;;;16.30;;
57297;SDS011;43147;50.972;18.210;2022-10-26T07:08:16;18.50;;;15.60;;
57297;SDS011;43147;50.972;18.210;2022-10-26T07:10:42;20.60;;;15.90;;
57297;SDS011;43147;50.972;18.210;2022-10-26T07:13:08;22.70;;;15.60;;
57297;SDS011;43147;50.972;18.210;2022-10-26T07:15:34;16.60;;;13.90;;
57297;SDS011;43147;50.972;18.210;2022-10-26T07:18:01;20.30;;;14.70;;
57297;SDS011;43147;50.972;18.210;2022-10-26T07:20:30;17.40;;;14.80;;
57297;SDS011;43147;50.972;18.210;2022-10-26T07:22:56;14.80;;;13.20;;
57297;SDS011;43147;50.972;18.210;2022-10-26T07:25:22;18.70;;;13.40;;
57297;SDS011;43147;50.972;18.210;2022-10-26T07:27:49;20.60;;;12.70;;
57297;SDS011;43147;50.972;18.210;2022-10-26T07:30:17;22.10;;;13.60;;
57297;SDS011;43147;50.972;18.210;2022-10-26T07:32:42;16.30;;;12.20;;
57297;SDS011;43147;50.972;18.210;2022-10-26T07:35:08;15.80;;;11.20;;
57297;SDS011;43147;50.972;18.210;2022-10-26T07:37:34;17.00;;;12.00;;
57297;SDS011;43147;50.972;18.210;2022-10-26T07:39:59;16.30;;;11.10;;
57297;SDS011;43147;50.972;18.210;2022-10-26T07:42:26;19.90;;;11.50;;
57297;SDS011;43147;50.972;18.210;2022-10-26T07:44:51;16.20;;;12.20;;
57297;SDS011;43147;50.972;18.210;2022-10-26T07:47:17;17.90;;;11.60;;
57297;SDS011;43147;50.972;18.210;2022-10-26T07:49:43;14.40;;;11.80;;
57297;SDS011;43147;50.972;18.210;2022-10-26T07:52:08;20.50;;;11.60;;
57297;SDS011;43147;50.972;18.210;2022-10-26T07:54:35;12.30;;;10.90;;
57297;SDS011;43147;50.972;18.210;2022-10-26T07:57:00;12.00;;;9.90;;
57297;SDS011;43147;50.972;18.210;2022-10-26T07:59:27;15.10;;;10.10;;
57297;SDS011;43147;50.972;18.210;2022-10-26T08:01:52;19.60;;;10.50;;
57297;SDS011;43147;50.972;18.210;2022-10-26T08:04:18;15.50;;;9.80;;
57297;SDS011;43147;50.972;18.210;2022-10-26T08:06:43;12.50;;;9.40;;
57297;SDS011;43147;50.972;18.210;2022-10-26T08:09:08;15.00;;;9.90;;
57297;SDS011;43147;50.972;18.210;2022-10-26T08:11:34;13.20;;;9.60;;
57297;SDS011;43147;50.972;18.210;2022-10-26T08:14:01;14.20;;;10.20;;
57297;SDS011;43147;50.972;18.210;2022-10-26T08:16:27;12.90;;;9.50;;
57297;SDS011;43147;50.972;18.210;2022-10-26T08:18:53;14.10;;;10.40;;
57297;SDS011;43147;50.972;18.210;2022-10-26T08:21:18;12.90;;;10.50;;
57297;SDS011;43147;50.972;18.210;2022-10-26T08:23:44;17.30;;;10.60;;
57297;SDS011;43147;50.972;18.210;2022-10-26T08:26:09;11.30;;;10.10;;
57297;SDS011;43147;50.972;18.210;2022-10-26T08:28:35;11.20;;;9.60;;
57297;SDS011;43147;50.972;18.210;2022-10-26T08:31:01;14.30;;;9.60;;
57297;SDS011;43147;50.972;18.210;2022-10-26T08:33:27;13.40;;;9.40;;
57297;SDS011;43147;50.972;18.210;2022-10-26T08:35:59;17.40;;;9.10;;
57297;SDS011;43147;50.972;18.210;2022-10-26T08:38:26;12.90;;;8.90;;
57297;SDS011;43147;50.972;18.210;2022-10-26T08:40:51;17.60;;;7.90;;
57297;SDS011;43147;50.972;18.210;2022-10-26T08:43:19;13.00;;;7.90;;
57297;SDS011;43147;50.972;18.210;2022-10-26T08:45:53;16.00;;;7.40;;
57297;SDS011;43147;50.972;18.210;2022-10-26T08:51:34;13.50;;;6.00;;
57297;SDS011;43147;50.972;18.210;2022-10-26T08:54:07;11.80;;;5.20;;
57297;SDS011;43147;50.972;18.210;2022-10-26T08:56:36;8.00;;;5.90;;
57297;SDS011;43147;50.972;18.210;2022-10-26T09:02:00;8.50;;;5.20;;
57297;SDS011;43147;50.972;18.210;2022-10-26T09:04:27;11.20;;;5.00;;
57297;SDS011;43147;50.972;18.210;2022-10-26T09:14:52;10.60;;;4.90;;
57297;SDS011;43147;50.972;18.210;2022-10-26T09:20:34;10.10;;;4.40;;
57297;SDS011;43147;50.972;18.210;2022-10-26T09:23:12;6.20;;;3.40;;
57297;SDS011;43147;50.972;18.210;2022-10-26T09:25:41;5.50;;;3.00;;
57297;SDS011;43147;50.972;18.210;2022-10-26T09:28:13;5.60;;;3.10;;
57297;SDS011;43147;50.972;18.210;2022-10-26T09:30:42;8.80;;;2.80;;
57297;SDS011;43147;50.972;18.210;2022-10-26T09:33:16;6.70;;;2.50;;
57297;SDS011;43147;50.972;18.210;2022-10-26T09:41:00;5.70;;;2.80;;
57297;SDS011;43147;50.972;18.210;2022-10-26T09:43:41;7.10;;;3.10;;
57297;SDS011;43147;50.972;18.210;2022-10-26T09:46:15;9.60;;;2.80;;
57297;SDS011;43147;50.972;18.210;2022-10-26T09:48:46;4.80;;;2.60;;
57297;SDS011;43147;50.972;18.210;2022-10-26T09:51:15;6.00;;;2.90;;
57297;SDS011;43147;50.972;18.210;2022-10-26T09:53:41;7.70;;;3.20;;
57297;SDS011;43147;50.972;18.210;2022-10-26T09:56:07;4.20;;;3.30;;
57297;SDS011;43147;50.972;18.210;2022-10-26T09:58:35;6.60;;;3.10;;
57297;SDS011;43147;50.972;18.210;2022-10-26T10:01:04;8.40;;;3.00;;
57297;SDS011;43147;50.972;18.210;2022-10-26T10:03:30;7.10;;;3.20;;
57297;SDS011;43147;50.972;18.210;2022-10-26T10:06:15;3.90;;;2.80;;
57297;SDS011;43147;50.972;18.210;2022-10-26T10:09:04;4.60;;;3.20;;
57297;SDS011;43147;50.972;18.210;2022-10-26T10:11:38;6.10;;;3.70;;
57297;SDS011;43147;50.972;18.210;2022-10-26T10:14:06;7.80;;;3.60;;
57297;SDS011;43147;50.972;18.210;2022-10-26T10:16:33;9.60;;;3.40;;
57297;SDS011;43147;50.972;18.210;2022-10-26T10:18:59;9.90;;;2.90;;
57297;SDS011;43147;50.972;18.210;2022-10-26T10:21:38;6.70;;;3.00;;
57297;SDS011;43147;50.972;18.210;2022-10-26T10:24:24;5.80;;;3.40;;
57297;SDS011;43147;50.972;18.210;2022-10-26T10:27:01;4.70;;;2.60;;
57297;SDS011;43147;50.972;18.210;2022-10-26T10:29:29;5.50;;;2.70;;
57297;SDS011;43147;50.972;18.210;2022-10-26T10:32:08;4.70;;;2.90;;
57297;SDS011;43147;50.972;18.210;2022-10-26T10:34:39;5.50;;;2.90;;
57297;SDS011;43147;50.972;18.210;2022-10-26T10:37:04;7.70;;;2.50;;
57297;SDS011;43147;50.972;18.210;2022-10-26T10:39:34;7.90;;;2.90;;
57297;SDS011;43147;50.972;18.210;2022-10-26T10:42:05;8.30;;;2.50;;
57297;SDS011;43147;50.972;18.210;2022-10-26T10:44:38;6.20;;;2.80;;
57297;SDS011;43147;50.972;18.210;2022-10-26T10:47:05;6.90;;;2.40;;
57297;SDS011;43147;50.972;18.210;2022-10-26T10:49:31;4.80;;;2.30;;
57297;SDS011;43147;50.972;18.210;2022-10-26T10:51:59;4.70;;;2.20;;
57297;SDS011;43147;50.972;18.210;2022-10-26T10:54:31;7.30;;;1.60;;
57297;SDS011;43147;50.972;18.210;2022-10-26T11:00:00;5.40;;;2.80;;
57297;SDS011;43147;50.972;18.210;2022-10-26T11:02:32;5.50;;;2.80;;
57297;SDS011;43147;50.972;18.210;2022-10-26T11:05:18;5.90;;;2.90;;
57297;SDS011;43147;50.972;18.210;2022-10-26T11:10:52;7.00;;;2.60;;
57297;SDS011;43147;50.972;18.210;2022-10-26T11:13:28;6.90;;;2.50;;
57297;SDS011;43147;50.972;18.210;2022-10-26T11:15:59;4.30;;;2.50;;
57297;SDS011;43147;50.972;18.210;2022-10-26T11:21:01;5.30;;;2.20;;
57297;SDS011;43147;50.972;18.210;2022-10-26T11:23:36;4.70;;;2.10;;
57297;SDS011;43147;50.972;18.210;2022-10-26T11:26:11;5.60;;;2.30;;
57297;SDS011;43147;50.972;18.210;2022-10-26T11:31:42;5.70;;;2.30;;
57297;SDS011;43147;50.972;18.210;2022-10-26T11:36:57;9.30;;;2.80;;
57297;SDS011;43147;50.972;18.210;2022-10-26T11:39:40;3.50;;;1.70;;
57297;SDS011;43147;50.972;18.210;2022-10-26T11:42:13;8.70;;;2.20;;
57297;SDS011;43147;50.972;18.210;2022-10-26T11:47:36;9.30;;;2.80;;
57297;SDS011;43147;50.972;18.210;2022-10-26T11:50:18;4.80;;;1.70;;
57297;SDS011;43147;50.972;18.210;2022-10-26T11:52:51;6.90;;;2.70;;
57297;SDS011;43147;50.972;18.210;2022-10-26T11:55:18;6.10;;;2.20;;
57297;SDS011;43147;50.972;18.210;2022-10-26T11:57:44;6.00;;;2.30;;
57297;SDS011;43147;50.972;18.210;2022-10-26T12:00:15;6.90;;;2.00;;
57297;SDS011;43147;50.972;18.210;2022-10-26T12:02:42;5.20;;;2.10;;
57297;SDS011;43147;50.972;18.210;2022-10-26T12:05:16;4.30;;;2.00;;
57297;SDS011;43147;50.972;18.210;2022-10-26T12:07:57;4.50;;;1.60;;
57297;SDS011;43147;50.972;18.210;2022-10-26T12:10:32;4.80;;;2.00;;
57297;SDS011;43147;50.972;18.210;2022-10-26T12:13:18;8.20;;;1.40;;
57297;SDS011;43147;50.972;18.210;2022-10-26T12:18:15;2.50;;;1.20;;
57297;SDS011;43147;50.972;18.210;2022-10-26T12:20:50;7.50;;;1.50;;
57297;SDS011;43147;50.972;18.210;2022-10-26T12:23:27;5.90;;;2.10;;
57297;SDS011;43147;50.972;18.210;2022-10-26T12:28:47;6.10;;;1.90;;
57297;SDS011;43147;50.972;18.210;2022-10-26T12:33:56;5.20;;;2.00;;
57297;SDS011;43147;50.972;18.210;2022-10-26T12:39:32;4.10;;;1.60;;
57297;SDS011;43147;50.972;18.210;2022-10-26T12:49:59;5.10;;;2.70;;
57297;SDS011;43147;50.972;18.210;2022-10-26T12:52:26;5.10;;;2.70;;
57297;SDS011;43147;50.972;18.210;2022-10-26T13:00:13;5.90;;;3.10;;
57297;SDS011;43147;50.972;18.210;2022-10-26T13:02:44;5.00;;;2.70;;
57297;SDS011;43147;50.972;18.210;2022-10-26T13:08:19;6.60;;;2.50;;
57297;SDS011;43147;50.972;18.210;2022-10-26T13:11:12;7.10;;;3.70;;
57297;SDS011;43147;50.972;18.210;2022-10-26T13:13:41;9.30;;;3.20;;
57297;SDS011;43147;50.972;18.210;2022-10-26T13:16:10;10.10;;;4.50;;
57297;SDS011;43147;50.972;18.210;2022-10-26T13:18:40;19.70;;;7.90;;
57297;SDS011;43147;50.972;18.210;2022-10-26T13:21:10;11.40;;;7.10;;
57297;SDS011;43147;50.972;18.210;2022-10-26T13:23:48;17.50;;;7.60;;
57297;SDS011;43147;50.972;18.210;2022-10-26T13:26:22;10.80;;;5.60;;
57297;SDS011;43147;50.972;18.210;2022-10-26T13:28:50;8.90;;;4.80;;
57297;SDS011;43147;50.972;18.210;2022-10-26T13:33:55;14.30;;;3.50;;
57297;SDS011;43147;50.972;18.210;2022-10-26T13:36:26;6.00;;;4.50;;
57297;SDS011;43147;50.972;18.210;2022-10-26T13:38:56;8.10;;;3.10;;
57297;SDS011;43147;50.972;18.210;2022-10-26T13:41:25;6.30;;;2.90;;
57297;SDS011;43147;50.972;18.210;2022-10-26T13:43:56;4.70;;;2.10;;
57297;SDS011;43147;50.972;18.210;2022-10-26T13:46:24;4.50;;;2.30;;
57297;SDS011;43147;50.972;18.210;2022-10-26T13:48:52;5.50;;;1.70;;
57297;SDS011;43147;50.972;18.210;2022-10-26T13:51:22;6.40;;;1.90;;
57297;SDS011;43147;50.972;18.210;2022-10-26T13:53:54;5.20;;;2.60;;
57297;SDS011;43147;50.972;18.210;2022-10-26T13:59:05;1.90;;;1.30;;
57297;SDS011;43147;50.972;18.210;2022-10-26T14:01:34;3.90;;;1.90;;
57297;SDS011;43147;50.972;18.210;2022-10-26T14:04:13;5.30;;;1.80;;
57297;SDS011;43147;50.972;18.210;2022-10-26T14:06:46;4.60;;;2.00;;
57297;SDS011;43147;50.972;18.210;2022-10-26T14:09:14;7.00;;;1.50;;
57297;SDS011;43147;50.972;18.210;2022-10-26T14:16:45;3.10;;;2.00;;
57297;SDS011;43147;50.972;18.210;2022-10-26T14:19:19;5.10;;;2.40;;
57297;SDS011;43147;50.972;18.210;2022-10-26T14:21:46;4.50;;;2.20;;
57297;SDS011;43147;50.972;18.210;2022-10-26T14:24:21;5.10;;;2.20;;
57297;SDS011;43147;50.972;18.210;2022-10-26T14:26:48;5.20;;;2.10;;
57297;SDS011;43147;50.972;18.210;2022-10-26T14:29:14;3.40;;;1.70;;
57297;SDS011;43147;50.972;18.210;2022-10-26T14:31:42;6.40;;;2.60;;
57297;SDS011;43147;50.972;18.210;2022-10-26T14:34:08;6.20;;;2.30;;
57297;SDS011;43147;50.972;18.210;2022-10-26T14:39:06;6.90;;;2.90;;
57297;SDS011;43147;50.972;18.210;2022-10-26T14:41:38;4.30;;;2.90;;
57297;SDS011;43147;50.972;18.210;2022-10-26T14:44:03;7.00;;;3.00;;
57297;SDS011;43147;50.972;18.210;2022-10-26T14:46:43;7.20;;;3.30;;
57297;SDS011;43147;50.972;18.210;2022-10-26T14:49:15;6.30;;;3.80;;
57297;SDS011;43147;50.972;18.210;2022-10-26T14:51:54;10.40;;;4.60;;
57297;SDS011;43147;50.972;18.210;2022-10-26T14:54:25;10.20;;;4.80;;
57297;SDS011;43147;50.972;18.210;2022-10-26T14:56:52;8.80;;;4.00;;
57297;SDS011;43147;50.972;18.210;2022-10-26T15:01:48;14.50;;;4.90;;
57297;SDS011;43147;50.972;18.210;2022-10-26T15:04:25;10.60;;;5.30;;
57297;SDS011;43147;50.972;18.210;2022-10-26T15:06:59;9.10;;;5.60;;
57297;SDS011;43147;50.972;18.210;2022-10-26T15:09:37;11.00;;;5.20;;
57297;SDS011;43147;50.972;18.210;2022-10-26T15:12:04;11.00;;;4.60;;
57297;SDS011;43147;50.972;18.210;2022-10-26T15:14:30;7.60;;;4.00;;
57297;SDS011;43147;50.972;18.210;2022-10-26T15:16:56;5.50;;;3.40;;
57297;SDS011;43147;50.972;18.210;2022-10-26T15:19:22;17.70;;;6.10;;
57297;SDS011;43147;50.972;18.210;2022-10-26T15:21:48;14.20;;;4.40;;
57297;SDS011;43147;50.972;18.210;2022-10-26T15:24:28;6.30;;;4.50;;
57297;SDS011;43147;50.972;18.210;2022-10-26T15:26:55;8.10;;;3.90;;
57297;SDS011;43147;50.972;18.210;2022-10-26T15:32:04;4.60;;;4.10;;
57297;SDS011;43147;50.972;18.210;2022-10-26T15:34:39;7.80;;;4.70;;
57297;SDS011;43147;50.972;18.210;2022-10-26T15:37:06;8.80;;;4.80;;
57297;SDS011;43147;50.972;18.210;2022-10-26T15:39:32;14.20;;;6.10;;
57297;SDS011;43147;50.972;18.210;2022-10-26T15:41:57;16.40;;;5.30;;
57297;SDS011;43147;50.972;18.210;2022-10-26T15:44:25;16.70;;;5.30;;
57297;SDS011;43147;50.972;18.210;2022-10-26T15:46:51;10.10;;;5.00;;
57297;SDS011;43147;50.972;18.210;2022-10-26T15:49:17;15.10;;;6.70;;
57297;SDS011;43147;50.972;18.210;2022-10-26T15:51:45;21.00;;;5.50;;
57297;SDS011;43147;50.972;18.210;2022-10-26T15:54:11;14.10;;;5.60;;
57297;SDS011;43147;50.972;18.210;2022-10-26T15:56:36;27.10;;;6.80;;
57297;SDS011;43147;50.972;18.210;2022-10-26T15:59:37;18.70;;;6.30;;
57297;SDS011;43147;50.972;18.210;2022-10-26T16:01:55;10.10;;;5.60;;
57297;SDS011;43147;50.972;18.210;2022-10-26T16:04:21;16.10;;;5.90;;
57297;SDS011;43147;50.972;18.210;2022-10-26T16:06:46;10.60;;;6.90;;
57297;SDS011;43147;50.972;18.210;2022-10-26T16:09:13;15.20;;;7.00;;
57297;SDS011;43147;50.972;18.210;2022-10-26T16:11:41;20.40;;;9.70;;
57297;SDS011;43147;50.972;18.210;2022-10-26T16:14:08;25.10;;;10.10;;
57297;SDS011;43147;50.972;18.210;2022-10-26T16:16:34;33.50;;;13.70;;
57297;SDS011;43147;50.972;18.210;2022-10-26T16:19:00;29.90;;;16.30;;
57297;SDS011;43147;50.972;18.210;2022-10-26T16:21:25;31.10;;;13.70;;
57297;SDS011;43147;50.972;18.210;2022-10-26T16:23:51;30.10;;;13.80;;
57297;SDS011;43147;50.972;18.210;2022-10-26T16:26:18;33.50;;;15.00;;
57297;SDS011;43147;50.972;18.210;2022-10-26T16:28:47;32.90;;;14.30;;
57297;SDS011;43147;50.972;18.210;2022-10-26T16:31:14;27.60;;;13.70;;
57297;SDS011;43147;50.972;18.210;2022-10-26T16:33:41;33.60;;;14.50;;
57297;SDS011;43147;50.972;18.210;2022-10-26T16:36:08;32.70;;;15.50;;
57297;SDS011;43147;50.972;18.210;2022-10-26T16:38:35;23.90;;;16.30;;
57297;SDS011;43147;50.972;18.210;2022-10-26T16:43:32;35.60;;;18.10;;
57297;SDS011;43147;50.972;18.210;2022-10-26T16:46:13;32.70;;;18.40;;
57297;SDS011;43147;50.972;18.210;2022-10-26T16:48:44;33.00;;;16.90;;
57297;SDS011;43147;50.972;18.210;2022-10-26T16:51:14;39.80;;;19.00;;
57297;SDS011;43147;50.972;18.210;2022-10-26T16:53:41;34.40;;;20.40;;
57297;SDS011;43147;50.972;18.210;2022-10-26T16:56:08;36.50;;;21.90;;
57297;SDS011;43147;50.972;18.210;2022-10-26T16:58:35;41.80;;;23.60;;
57297;SDS011;43147;50.972;18.210;2022-10-26T17:01:00;46.30;;;25.70;;